• Join FlightAware (Why Join?)
  • Login
  • US Flag 
12:22PM EDT


 

Airport Tracker/Info


-or-


 

Live Flight TrackerFlight Track Log ✈ DAL511 ✈ 06-Sep-2013 ✈ MMMX / MEX - KDTW

Flight Track Log - Related Links

Times and Time Zones

All times are in EDT time to prevent confusion due to time zone crossing. See the DAL511 flight status page for this flight to view local times or setup timezone preferences in your user account.

Time Position Orientation Groundspeed Altitude Reporting Facility
EDT Latitude Longitude Course Direction KTS MPH feet Rate Location/Type
09:41AM 19.5372 -99.0081 31° Northeast  Level FlightAware Approximate
09:42AM 19.6329 -98.9725 32° Northeast  Level FlightAware Approximate
09:43AM 19.7408 -98.9253 17° North  Level FlightAware Approximate
09:44AM 19.8518 -98.8844 23° Northeast  Level FlightAware Approximate
09:45AM 19.9602 -98.8362 23° Northeast  Level FlightAware Approximate
09:46AM 20.0693 -98.7904 25° Northeast  Level FlightAware Approximate
09:47AM 20.1777 -98.7431 13° North  Level FlightAware Approximate
09:48AM 20.2882 -98.7016 23° Northeast  Level FlightAware Approximate
09:49AM 20.3970 -98.6541 21° North  Level FlightAware Approximate
09:50AM 20.5065 -98.6084 21° North  Level FlightAware Approximate
09:51AM 20.6162 -98.5635 21° North  Level FlightAware Approximate
09:52AM 20.7252 -98.5166 23° Northeast  Level FlightAware Approximate
09:53AM 20.8343 -98.4696 20° North  Level FlightAware Approximate
09:54AM 20.9435 -98.4233 23° Northeast  Level FlightAware Approximate
09:55AM 21.0521 -98.3751 22° Northeast  Level FlightAware Approximate
09:56AM 21.1610 -98.3275 22° Northeast  Level FlightAware Approximate
09:57AM 21.2698 -98.2799 22° Northeast  Level FlightAware Approximate
09:58AM 21.3806 -98.2379 18° North  Level FlightAware Approximate
09:59AM 21.4921 -98.1981 18° North  Level FlightAware Approximate
10:00AM 21.6019 -98.1530 22° Northeast  Level FlightAware Approximate
10:01AM 21.7106 -98.1049 22° Northeast  Level FlightAware Approximate
10:02AM 21.8193 -98.0567 22° Northeast  Level FlightAware Approximate
10:03AM 21.9280 -98.0084 22° Northeast  Level FlightAware Approximate
10:04AM 22.0366 -97.9601 22° Northeast  Level FlightAware Approximate
10:05AM 22.1453 -97.9116 22° Northeast  Level FlightAware Approximate
10:06AM 22.2539 -97.8631 22° Northeast  Level FlightAware Approximate
10:07AM 22.3687 -97.8420 North  Level FlightAware Approximate
10:08AM 22.4858 -97.8310 North  Level FlightAware Approximate
10:09AM 22.6029 -97.8200 North  Level FlightAware Approximate
10:10AM 22.7201 -97.8089 North  Level FlightAware Approximate
10:11AM 22.8372 -97.7979 North  Level FlightAware Approximate
10:12AM 22.9543 -97.7868 North  Level FlightAware Approximate
10:13AM 23.0714 -97.7757 North  Level FlightAware Approximate
10:14AM 23.1885 -97.7646 North  Level FlightAware Approximate
10:15AM 23.3056 -97.7536 North  Level FlightAware Approximate
10:16AM 23.4227 -97.7425 North  Level FlightAware Approximate
10:17AM 23.5398 -97.7314 North  Level FlightAware Approximate
10:18AM 23.6569 -97.7203 North  Level FlightAware Approximate
10:19AM 23.7740 -97.7092 North  Level FlightAware Approximate
10:20AM 23.8911 -97.6980 North  Level FlightAware Approximate
10:21AM 24.0082 -97.6869 North  Level FlightAware Approximate
10:22AM 24.1253 -97.6757 North  Level FlightAware Approximate
10:23AM 24.2424 -97.6645 North  Level FlightAware Approximate
10:24AM 24.3595 -97.6532 North  Level FlightAware Approximate
10:25AM 24.4766 -97.6420 North  Level FlightAware Approximate
10:26AM 24.5937 -97.6307 North  Level FlightAware Approximate
10:27AM 24.7108 -97.6194 North  Level FlightAware Approximate
10:28AM 24.8279 -97.6081 North  Level FlightAware Approximate
10:29AM 24.9450 -97.5968 North  Level FlightAware Approximate
10:30AM 25.0621 -97.5854 North  Level FlightAware Approximate
10:31AM 25.1792 -97.5741 North  Level FlightAware Approximate
10:32AM 25.2963 -97.5627 North  Level FlightAware Approximate
10:33AM 25.4109 -97.5515 North  Level FlightAware Approximate
10:34AM 25.5255 -97.5403 North  Level FlightAware Approximate
10:35AM 25.6401 -97.5291 North  Level FlightAware Approximate
10:36AM 25.7547 -97.5178 North  Level FlightAware Approximate
10:37AM 25.8432 -97.4401 42° Northeast  Level FlightAware Approximate
10:38AM 25.9321 -97.3610 18° North  Level FlightAware Approximate
10:39AM 26.0413 -97.3206 18° North  Level FlightAware Approximate
10:40AM 26.1504 -97.2801 18° North  Level FlightAware Approximate
10:40AM 25.4272 -97.3633 18° North 459 528 37,000  Level Houston Center
10:41AM 26.2596 -97.2396 18° North  Level FlightAware Approximate
10:41AM 25.5789 -97.3675 359° North 454 522 37,000  Level Houston Center
10:42AM 26.3687 -97.1990 18° North  Level FlightAware Approximate
10:42AM 25.7033 -97.3703 359° North 450 518 37,000  Level Houston Center
10:43AM 26.4778 -97.1583 18° North  Level FlightAware Approximate
10:43AM 25.8383 -97.3717 359° North 451 519 37,000  Level Houston Center
10:44AM 26.5870 -97.1176 18° North  Level FlightAware Approximate
10:44AM 25.9536 -97.3119 25° Northeast 460 529 37,000  Level Houston Center
10:45AM 26.6961 -97.0768 18° North  Level FlightAware Approximate
10:45AM 26.0706 -97.2325 31° Northeast 459 528 37,000  Level Houston Center
10:46AM 26.1789 -97.1575 32° Northeast 459 528 37,000  Level Houston Center
10:47AM 26.2956 -97.0778 31° Northeast 459 528 37,000  Level Houston Center
10:48AM 26.4031 -97.0031 32° Northeast 457 526 37,000  Level Houston Center
10:49AM 26.5189 -96.9236 32° Northeast 455 524 37,000  Level Houston Center
10:50AM 26.6264 -96.8489 32° Northeast 455 524 37,000  Level Houston Center
10:51AM 26.7228 -96.7814 32° Northeast 457 526 37,000  Level Houston Center
10:52AM 26.8511 -96.6922 32° Northeast 454 522 37,000  Level Houston Center
10:53AM 26.9594 -96.6167 32° Northeast 458 527 37,000  Level Houston Center
10:54AM 27.0658 -96.5406 32° Northeast 455 524 37,000  Level Houston Center
10:55AM 27.1689 -96.4697 31° Northeast 453 521 37,000  Level Houston Center
10:56AM 27.2764 -96.3939 32° Northeast 455 524 37,000  Level Houston Center
10:57AM 27.4050 -96.3022 32° Northeast 457 526 37,000  Level Houston Center
10:58AM 27.5125 -96.2272 32° Northeast 456 525 37,000  Level Houston Center
10:59AM 27.6169 -96.1517 33° Northeast 450 518 37,000 -60 Level Houston Center
11:00AM 27.7233 -96.0778 32° Northeast 450 518 36,900  Descending Houston Center
11:02AM 27.8286 -96.0025 32° Northeast 450 518 37,000  Climbing Houston Center
11:03AM 27.9339 -95.9272 32° Northeast 448 516 37,000  Level Houston Center
11:04AM 28.0664 -95.8519 27° Northeast 447 514 37,000  Level Houston Center
11:05AM 28.1881 -95.8406 North 441 507 37,000  Level Houston Center
11:06AM 28.3111 -95.8289 North 447 514 37,000  Level Houston Center
11:07AM 28.4222 -95.7656 27° Northeast 450 518 37,000  Level Houston Center
11:08AM 28.5350 -95.7094 24° Northeast 444 511 37,000  Level Houston Center
11:09AM 28.6678 -95.6322 27° Northeast 447 514 37,000  Level Houston Center
11:10AM 28.7683 -95.5508 35° Northeast 444 511 37,000  Level Houston Center
11:11AM 28.8708 -95.4744 33° Northeast 442 509 37,000  Level Houston Center
11:12AM 28.9728 -95.3975 33° Northeast 441 507 37,000  Level Houston Center
11:13AM 29.0742 -95.3214 33° Northeast 439 505 37,000  Level Houston Center
11:14AM 29.1783 -95.2419 34° Northeast 446 513 37,000  Level Houston Center
11:15AM 29.3011 -95.1475 34° Northeast 448 516 37,000  Level Houston Center
11:16AM 29.4036 -95.0694 34° Northeast 447 514 37,000  Level Houston Center
11:17AM 29.5050 -94.9911 34° Northeast 447 514 37,000  Level Houston Center
11:18AM 29.6075 -94.9153 33° Northeast 445 512 37,000  Level Houston Center
11:19AM 29.7275 -94.8231 34° Northeast 439 505 37,000  Level Houston Center
11:20AM 29.8278 -94.7458 34° Northeast 439 505 37,000  Level Houston Center
11:21AM 29.9267 -94.6703 34° Northeast 431 496 37,000  Level Houston Center
11:22AM 30.0256 -94.5931 34° Northeast 432 497 37,000  Level Houston Center
11:23AM 30.1258 -94.5169 33° Northeast 434 499 37,000  Level Houston Center
11:24AM 30.2336 -94.4342 34° Northeast 436 502 37,000  Level Houston Center
11:25AM 30.3358 -94.3558 33° Northeast 439 505 37,000  Level Houston Center
11:26AM 30.4567 -94.2611 34° Northeast 438 504 37,000 -60 Level Houston Center
11:27AM 30.5581 -94.1833 33° Northeast 436 502 36,900  Descending Houston Center
11:28AM 30.6617 -94.1008 34° Northeast 439 505 37,000  Climbing Houston Center
11:29AM 30.7606 -94.0239 34° Northeast 438 504 37,000  Level Houston Center
11:30AM 30.8614 -93.9453 34° Northeast 435 501 37,000  Level Houston Center
11:32AM 30.9628 -93.8647 34° Northeast 438 504 37,000  Level Houston Center
11:33AM 31.0639 -93.7839 34° Northeast 438 504 37,000  Level Houston Center
11:34AM 31.1856 -93.6864 34° Northeast 442 509 37,000  Level Houston Center
11:35AM 31.2847 -93.6078 34° Northeast 441 507 37,000  Level Houston Center
11:36AM 31.3922 -93.5225 34° Northeast 444 511 37,000  Level Houston Center
11:37AM 31.4939 -93.4417 34° Northeast 443 510 37,000  Level Houston Center
11:38AM 31.5967 -93.3592 34° Northeast 445 512 37,000  Level Houston Center
11:39AM 31.6953 -93.2789 35° Northeast 444 511 37,000  Level Houston Center
11:40AM 31.8211 -93.1769 35° Northeast 445 512 37,000  Level Houston Center
11:41AM 31.9228 -93.0939 35° Northeast 443 510 37,000  Level Houston Center
11:42AM 32.0247 -93.0117 34° Northeast 442 509 37,000  Level Houston Center
11:43AM 32.1267 -92.9292 34° Northeast 444 511 37,000  Level Houston Center
11:44AM 32.2283 -92.8447 35° Northeast 445 512 37,000  Level Houston Center
11:45AM 32.3300 -92.7606 35° Northeast 445 512 37,000  Level Houston Center
11:46AM 32.4461 -92.6672 34° Northeast 440 506 37,000  Level Houston Center
11:47AM 32.5475 -92.5825 35° Northeast 445 512 37,000  Level Houston Center
11:48AM 32.6531 -92.4950 35° Northeast 439 505 37,000  Level Houston Center
11:49AM 32.7531 -92.4131 35° Northeast 437 503 37,000  Level Houston Center
11:50AM 32.8544 -92.3300 35° Northeast 441 507 37,000  Level Houston Center
11:51AM 32.9414 -92.2583 35° Northeast 434 499 37,000  Level Memphis Center
11:52AM 33.0386 -92.1761 35° Northeast 445 512 37,000  Level Memphis Center
11:53AM 33.1422 -92.0914 34° Northeast 445 512 37,000  Level Memphis Center
11:54AM 33.2308 -92.0136 36° Northeast 440 506 37,000  Level Memphis Center
11:55AM 33.3428 -91.9214 35° Northeast 446 513 37,000  Level Memphis Center
11:56AM 33.4461 -91.8361 35° Northeast 446 513 37,000  Level Memphis Center
11:57AM 33.5472 -91.7506 35° Northeast 446 513 37,000  Level Memphis Center
11:58AM 33.6294 -91.6744 38° Northeast 441 507 37,000  Level Memphis Center
11:59AM 33.7347 -91.5861 35° Northeast 434 499 37,000  Level Memphis Center
12:00PM 33.8358 -91.5000 35° Northeast 434 499 37,000  Level Memphis Center
12:01PM 33.9344 -91.4161 35° Northeast 439 505 37,000  Level Memphis Center
12:02PM 34.0353 -91.3297 35° Northeast 442 509 37,000  Level Memphis Center
12:03PM 34.1489 -91.2356 34° Northeast 442 509 37,000  Level Memphis Center
12:04PM 34.2475 -91.1461 37° Northeast 442 509 37,000  Level Memphis Center
12:05PM 34.3461 -91.0614 35° Northeast 437 503 37,000  Level Memphis Center
12:06PM 34.4489 -90.9742 35° Northeast 437 503 37,000  Level Memphis Center
12:07PM 34.5494 -90.8842 36° Northeast 437 503 37,000  Level Memphis Center
12:08PM 34.6497 -90.7964 36° Northeast 437 503 37,000  Level Memphis Center
12:09PM 34.7481 -90.7111 35° Northeast 437 503 37,000  Level Memphis Center
12:10PM 34.8486 -90.6253 35° Northeast 437 503 37,000  Level Memphis Center
12:11PM 34.9383 -90.5469 36° Northeast 437 503 37,000  Level Memphis Center
12:12PM 35.0386 -90.4586 36° Northeast 437 503 37,000  Level Memphis Center
12:13PM 35.1389 -90.3672 37° Northeast 437 503 37,000  Level Memphis Center
12:14PM 35.2367 -90.2783 37° Northeast 437 503 37,000  Level Memphis Center
12:15PM 35.3369 -90.1892 36° Northeast 437 503 37,000  Level Memphis Center
12:16PM 35.4472 -90.0919 36° Northeast 437 503 37,000  Level Memphis Center
12:17PM 35.5450 -89.9997 37° Northeast 437 503 37,000  Level Memphis Center
12:18PM 35.6469 -89.9100 36° Northeast 437 503 37,000  Level Memphis Center
12:19PM 35.7258 -89.8328 38° Northeast 426 490 37,000  Level Memphis Center
12:20PM 35.8256 -89.7425 36° Northeast 426 490 37,000  Level Memphis Center
12:21PM 35.9250 -89.6519 36° Northeast 432 497 37,000  Level Memphis Center
12:22PM 36.0247 -89.5614 36° Northeast 432 497 37,000  Level Memphis Center
12:23PM 36.1219 -89.4706 37° Northeast 432 497 37,000  Level Memphis Center
12:24PM 36.2172 -89.3794 38° Northeast 432 497 37,000  Level Memphis Center
12:25PM 36.3292 -89.2853 34° Northeast 444 511 37,000  Level Memphis Center
12:26PM 36.4261 -89.1911 38° Northeast 452 520 37,000  Level Memphis Center
12:27PM 36.5275 -89.0967 37° Northeast 459 528 37,000  Level Memphis Center
12:28PM 36.6222 -89.0100 36° Northeast 442 509 37,000  Level Memphis Center
12:29PM 36.7192 -88.9203 37° Northeast 435 501 37,000  Level Memphis Center
12:30PM 36.8142 -88.8306 37° Northeast 430 495 37,000  Level Memphis Center
12:31PM 36.9089 -88.7406 37° Northeast 430 495 37,000  Level Memphis Center
12:33PM 37.0819 -88.5750 37° Northeast 429 494 37,000  Level Indianapolis Center
12:34PM 37.1792 -88.4833 37° Northeast 431 496 37,000  Level Indianapolis Center
12:35PM 37.2775 -88.3906 37° Northeast 433 498 37,000  Level Indianapolis Center
12:36PM 37.3767 -88.2958 37° Northeast 438 504 37,000  Level Indianapolis Center
12:37PM 37.4722 -88.2033 38° Northeast 432 497 37,000  Level Indianapolis Center
12:38PM 37.5700 -88.1092 37° Northeast 434 499 37,000  Level Indianapolis Center
12:39PM 37.6711 -88.0217 34° Northeast 435 501 37,000  Level Indianapolis Center
12:40PM 37.7703 -87.9492 30° Northeast 430 495 37,000  Level Indianapolis Center
12:41PM 37.8950 -87.8547 31° Northeast 432 497 37,000  Level Indianapolis Center
12:42PM 37.9992 -87.7764 31° Northeast 432 497 37,000  Level Indianapolis Center
12:43PM 38.1022 -87.6983 31° Northeast 429 494 37,000  Level Indianapolis Center
12:44PM 38.2044 -87.6225 30° Northeast 424 488 37,000  Level Indianapolis Center
12:45PM 38.3061 -87.5453 31° Northeast 422 486 37,000  Level Indianapolis Center
12:46PM 38.4078 -87.4672 31° Northeast 422 486 37,000  Level Indianapolis Center
12:47PM 38.5106 -87.3889 31° Northeast 424 488 37,000  Level Indianapolis Center
12:48PM 38.6200 -87.3289 23° Northeast 423 487 37,000  Level Indianapolis Center
12:49PM 38.7328 -87.2783 19° North 424 488 37,000  Level Indianapolis Center
12:50PM 38.8683 -87.2167 20° North 426 490 37,000  Level Indianapolis Center
12:51PM 38.9806 -87.1672 19° North 425 489 37,000  Level Indianapolis Center
12:52PM 39.0925 -87.1150 20° North 425 489 37,000  Level Indianapolis Center
12:53PM 39.2067 -87.0447 25° Northeast 427 491 37,000  Level Indianapolis Center
12:54PM 39.2953 -86.9475 40° Northeast 420 483 37,000 -240 Level Indianapolis Center
12:55PM 39.3828 -86.8506 41° Northeast 416 479 36,600 -480 Descending Indianapolis Center
12:56PM 39.4706 -86.7522 41° Northeast 418 481 36,100 -480 Descending Indianapolis Center
12:57PM 39.5589 -86.6544 40° Northeast 418 481 35,700 -480 Descending Indianapolis Center
12:58PM 39.6486 -86.5542 41° Northeast 423 487 35,200 -540 Descending Indianapolis Center
12:59PM 39.7572 -86.4333 41° Northeast 423 487 34,600 -720 Descending Indianapolis Center
01:01PM 39.8433 -86.3375 41° Northeast 426 490 33,800 -780 Descending Indianapolis Center
01:02PM 39.9481 -86.2356 37° Northeast 429 494 33,000 -420 Descending Indianapolis Center
01:03PM 40.0419 -86.1408 38° Northeast 426 490 33,000  Level Indianapolis Center
01:04PM 40.1367 -86.0456 38° Northeast 429 494 33,000  Level Indianapolis Center
01:04PM 40.1942 -85.9886 37° Northeast 428 493 33,000 -480 Level Chicago Center
01:05PM 40.2892 -85.8931 37° Northeast 429 494 32,200 -1,020 Descending Chicago Center
01:06PM 40.4047 -85.7764 38° Northeast 434 499 31,000 -1,320 Descending Chicago Center
01:07PM 40.5017 -85.6761 38° Northeast 440 506 29,500 -1,500 Descending Chicago Center
01:08PM 40.6000 -85.5781 37° Northeast 443 510 27,900 -1,560 Descending Chicago Center
01:09PM 40.6944 -85.4822 38° Northeast 436 502 26,300 -1,500 Descending Chicago Center
01:10PM 40.7883 -85.3856 38° Northeast 430 495 24,800 -1,380 Descending Chicago Center
01:12PM 40.9006 -85.2669 39° Northeast 431 496 23,500 -1,140 Descending Chicago Center
01:13PM 40.9928 -85.1700 38° Northeast 430 495 22,500 -1,020 Descending Chicago Center
01:14PM 41.0817 -85.0772 38° Northeast 420 483 21,500 -780 Descending Chicago Center
01:15PM 41.1672 -84.9836 39° Northeast 407 468 21,000 -300 Descending Chicago Center
01:16PM 41.2550 -84.8906 39° Northeast 406 467 21,000  Level Chicago Center
01:17PM 41.3592 -84.7778 39° Northeast 406 467 21,000  Level Chicago Center
01:18PM 41.4456 -84.6844 39° Northeast 405 466 21,000  Level Chicago Center
01:19PM 41.5322 -84.5903 39° Northeast 404 465 21,000 -300 Level Chicago Center
01:20PM 41.6186 -84.4964 39° Northeast 404 465 20,400 -1,080 Descending Chicago Center
01:20PM 41.6678 -84.4417 40° Northeast 406 467 19,300 -2,820 Descending Cleveland Center
01:21PM 41.7242 -84.3086 60° Northeast 395 455 16,000 -3,420 Descending Cleveland Center
01:22PM 41.7450 -84.2514 64° Northeast 414 476 14,800 -2,640 Descending Cleveland Center
01:22PM 41.7747 -84.1642 65° Northeast 395 455 13,400 -1,920 Descending Cleveland Center
01:23PM 41.7994 -84.1069 60° Northeast 378 435 12,700 -1,440 Descending Cleveland Center
01:23PM 41.8242 -84.0442 62° Northeast 384 442 12,000 -720 Descending Cleveland Center
01:24PM 41.8550 -83.9928 51° Northeast 368 423 12,000  Level Cleveland Center
01:24PM 41.8881 -83.9361 52° Northeast 367 422 12,000  Level Cleveland Center
01:25PM 41.9228 -83.8903 44° Northeast 360 414 12,000  Level Cleveland Center
01:25PM 41.9556 -83.8361 51° Northeast 362 417 12,000  Level Cleveland Center
01:26PM 41.9903 -83.7906 44° Northeast 361 415 12,000  Level Cleveland Center
01:26PM 42.0250 -83.7392 48° Northeast 357 411 12,000  Level Cleveland Center
01:27PM 42.0617 -83.6906 45° Northeast 340 391 12,000  Level Cleveland Center
01:27PM 42.0858 -83.6497 51° Northeast 344 396 12,000  Level Cleveland Center
01:28PM 42.1181 -83.6067 45° Northeast 297 342 12,000  Level Cleveland Center
01:28PM 42.1422 -83.5656 52° Northeast 322 371 12,000  Level Cleveland Center
01:29PM 42.1806 -83.5339 31° Northeast 299 344 12,000 -240 Level Cleveland Center
01:29PM 42.2000 -83.5067 46° Northeast 300 345 11,800 -900 Descending Cleveland Center
01:30PM 42.2444 -83.4750 28° Northeast 240 276 11,100 -1,020 Descending Cleveland Center
01:30PM 42.2594 -83.4617 33° Northeast 265 305 10,800 -1,500 Descending Cleveland Center
01:31PM 42.2997 -83.4411 21° North 216 249 9,600 -2,040 Descending Cleveland Center
01:31PM 42.3186 -83.4281 27° Northeast 230 265 8,800 -2,400 Descending Cleveland Center
01:32PM 42.3567 -83.4100 19° North 209 241 7,200 -2,400 Descending Cleveland Center
01:33PM 42.4056 -83.3728 29° Northeast 211 243 5,000 -1,560 Descending Cleveland Center
01:34PM 42.3819 -83.3069 116° Southeast 185 213 3,900 -1,080 Descending Cleveland Center
01:35PM 42.3342 -83.2994 173° South 161 185 2,700 -900 Descending Cleveland Center
01:36PM 42.2989 -83.3033 185° South 129 148 2,100 -720 Descending Cleveland Center
01:37PM 42.2564 -83.3325 207° Southwest 128 147 1,200 -780 Descending Cleveland Center